x

Neah Bay, - 6nm North Of Cape Flattery, Wa (traffic Separation Lighted Buoy) (46087) Wave Buoy

7:50pm - Sun 4th Dec 2016 All times are PST. -8 hours from GMT.

  • Sig Wave height 10.2ft
  • Swell Direction
  • Peak Period 13s
  • Average Period 9s
  • Wind
    13mph, 18mph gusts
  • Sea Temp 51°f
  • 空気 Temp 44°f
  • Sea Pressure 1019mb
  • Neah Bay, - 6nm North Of Cape Flattery, Wa     (traffic Separation Lighted Buoy)
  • Neah Bay, - 6nm North Of Cape Flattery, Wa     (traffic Separation Lighted Buoy)

More Historic Weather Station data

Upgrade to MSW Pro to gain access to the past 30 days of data for over 8000 Wavebouys and Weather Stations around the globe.

Join Pro

Comparision Forecast

View Surf forecast
   
Sun 12/04 7:50pm 10ft 13s 9s 13 18 mph 1019mb 51f 44f
7:20pm 10ft 12s 8s 13 18 mph 1019mb 51f 44f
6:50pm 10ft 12s 8s 16 20 mph 1018.9mb 51f 45f
6:20pm 11ft 14s 8s 18 22 mph 1019mb 51f 44f
5:50pm 12.5ft 14s 8s 18 22 mph 1018.8mb 51f 44f
5:20pm 12ft 14s 8s 22 27 mph 1018.8mb 51f 44f
4:50pm 12ft 11s 8s 22 27 mph 1018.4mb 51f 44f
4:20pm 12ft 11s 8s 27 34 mph 1018.6mb 51f 44f
3:50pm 12ft 11s 8s 31 40 mph 1018.4mb 51f 44f
3:20pm 11ft 12s 8s 25 31 mph 1018.4mb 51f 46f
2:50pm 12.5ft 14s 9s 25 29 mph 1018.2mb 51f 46f
2:20pm 11.5ft 11s 8s 22 27 mph 1018.1mb 51f 46f
1:50pm 11.5ft 15s 9s 18 22 mph 1018mb 51f 46f
1:20pm 12ft 11s 8s 18 22 mph 1017.9mb 51f 45f
12:50pm 12.5ft 13s 8s 16 20 mph 1017.9mb 51f 45f
12:20pm 11.5ft 15s 8s 22 27 mph 1017.8mb 51f 45f
11:50am 12ft 12s 8s 27 34 mph 1018mb 51f 45f
11:20am 11.5ft 15s 8s 27 36 mph 1018.1mb 51f 45f
10:50am 11ft 11s 8s 22 27 mph 1018.3mb 51f 44f
10:20am 11ft 15s 9s 18 22 mph 1018.1mb 51f 44f
9:50am 11ft 15s 9s 18 22 mph 1017.7mb 51f 44f
9:20am 11ft 14s 9s 18 22 mph 1017.4mb 51f 44f
8:50am 11ft 11s 9s 16 20 mph 1017.2mb 51f 44f
8:20am 11ft 14s 9s 16 18 mph 1017.1mb 51f 43f
7:50am 11.5ft 14s 9s 16 20 mph 1016.9mb 51f 43f
7:20am 11ft 15s 8s 13 18 mph 1016.4mb 51f 43f
6:50am 11ft 13s 8s 20 25 mph 1016.2mb 51f 44f
6:20am 11ft 15s 8s 25 29 mph 1015.8mb 51f 45f
5:50am 11ft 15s 8s 22 27 mph 1015.7mb 51f 45f
5:20am 11ft 13s 8s 25 29 mph 1015.7mb 51f 46f
4:50am 12ft 14s 8s 25 31 mph 1015.8mb 51f 45f
4:20am 10.5ft 14s 8s 25 31 mph 1015.9mb 51f 45f
3:50am 12ft 14s 8s 25 27 mph 1016.3mb 51f 44f
3:20am 12ft 14s 8s 22 29 mph 1016.9mb 51f 41f
2:50am 11.5ft 11s 8s 20 25 mph 1016.7mb 51f 44f
2:20am 12ft 14s 8s 25 29 mph 1016.7mb 51f 44f
1:50am 12ft 11s 9s 22 29 mph 1016.7mb 52f 45f
1:20am 11ft 14s 9s 20 31 mph 1017mb 52f 44f
12:50am 10.5ft 14s 8s 16 22 mph 1017.3mb 52f 46f
12:20am 12ft 14s 9s 25 31 mph 1017.4mb 52f 45f
Sat 12/03 11:50pm 12ft 14s 9s 20 25 mph 1017.7mb 52f 46f
11:20pm 12.5ft 15s 10s 13 18 mph 1017.8mb 52f 44f
10:50pm 10.5ft 12s 9s 16 18 mph 1017.9mb 52f 45f
10:20pm 12ft 14s 9s 20 27 mph 1018.2mb 52f 45f
9:50pm 11.5ft 11s 9s 25 31 mph 1018.2mb 51f 45f
9:20pm 12ft 14s 9s 16 20 mph 1018.4mb 51f 46f
8:50pm 11.5ft 15s 9s 20 25 mph 1018.5mb 51f 46f
8:20pm 11.5ft 16s 9s 22 27 mph 1018.8mb 51f 46f
7:50pm 11.5ft 15s 9s 20 38 mph 1018.7mb 51f 47f
7:20pm 11.5ft 16s 9s 18 22 mph 1018.8mb 51f 47f
6:50pm 11.5ft 14s 9s 22 27 mph 1019mb 51f 47f
6:20pm 12ft 15s 9s 25 29 mph 1019.2mb 51f 47f
5:50pm 13ft 15s 10s 16 20 mph 1019.6mb 51f 48f
5:20pm 12ft 16s 9s 16 20 mph 1019.9mb 51f 47f
4:50pm 12ft 16s 9s 18 22 mph 1020.3mb 51f 48f
4:20pm 12.5ft 16s 9s 20 25 mph 1020.6mb 51f 48f
3:50pm 12.5ft 16s 9s 16 22 mph 1020.8mb 51f 49f
3:20pm 14ft 16s 10s 18 25 mph 1021.2mb 51f 48f
2:50pm 13.5ft 16s 9s 16 20 mph 1021.3mb 51f 49f
2:20pm 12ft 15s 9s 13 18 mph 1021.6mb 51f 48f
1:50pm 13ft 13s 9s 16 22 mph 1022.2mb 51f 47f
1:20pm 12.5ft 16s 9s 18 25 mph 1022.5mb 51f 51f
12:50pm 12.5ft 16s 10s 16 22 mph 1022.6mb 51f 50f
12:20pm 15ft 15s 10s 16 22 mph 1023.3mb 51f 50f
11:50am 13ft 15s 10s 9 18 mph 1023.6mb 51f 49f
11:20am 14ft 14s 10s 9 16 mph 1023.8mb 51f 49f
10:50am 13ft 16s 10s 13 18 mph 1023.6mb 51f 49f
10:20am 14ft 14s 10s 20 25 mph 1023.7mb 51f 49f
9:50am 13ft 15s 10s 13 18 mph 1023.8mb 52f 50f
9:20am 14ft 16s 10s 9 13 mph 1023.4mb 51f 49f
8:50am 12ft 11s 9s 11 13 mph 1023.6mb 51f 48f
8:20am 13ft 13s 10s 16 22 mph 1023.1mb 51f 51f
7:50am 14ft 16s 10s 11 13 mph 1023.1mb 51f 50f
7:20am 15ft 15s 11s 13 18 mph 1023.6mb 51f 49f
6:50am 14.5ft 16s 11s 9 13 mph 1023.7mb 52f 50f
6:20am 14.5ft 16s 10s 11 13 mph 1023.6mb 51f 49f
5:50am 13.5ft 17s 10s 20 27 mph 1022.9mb 52f 50f
5:20am 14ft 15s  -  16 22 mph 1022.9mb 52f 50f
4:50am 14ft 16s 10s 9 11 mph 1022.9mb 52f 50f
4:20am 15.5ft 16s 10s 9 13 mph 1022.9mb 52f 50f
3:50am 15ft 16s 10s 11 16 mph 1023mb 52f 49f
3:20am 14ft 13s 9s 11 13 mph 1022.8mb 52f 49f
2:50am 14ft 17s 9s 4 9 mph 1022.7mb 52f 49f
2:20am 14ft 17s 9s 9 11 mph 1022.5mb 52f 49f
1:50am 14.5ft 16s 9s 18 27 mph 1022.4mb 52f 51f
1:20am 15.5ft 17s 10s 18 25 mph 1022mb 52f 50f
12:50am 14ft 12s 9s 16 20 mph 1022.1mb 52f 49f
12:20am 14ft 12s 10s 16 18 mph 1022mb 52f 49f
Fri 12/02 11:50pm 14ft 13s 10s 16 18 mph 1021.9mb 52f 50f
11:20pm 13ft 12s 9s 16 20 mph 1021.7mb 52f 50f
10:50pm 12ft 13s 9s 16 20 mph 1021.2mb 52f 49f
10:20pm 12ft 13s 9s 22 29 mph 1020.5mb 52f 51f
9:50pm 12ft 12s 9s 13 22 mph 1020.5mb 52f 51f
9:20pm 11ft 12s 9s 16 20 mph 1020.2mb 52f 50f
8:50pm 11ft 13s 9s 20 27 mph 1019.8mb 52f 51f
8:20pm 10ft 12s 8s 16 25 mph 1020mb 52f 48f
7:50pm 11ft 12s 9s 20 25 mph 1019.2mb 52f 52f
7:20pm 11.5ft 13s 9s 11 16 mph 1018.8mb 52f 51f
6:50pm 11.5ft 12s 8s 20 25 mph 1018.6mb 52f 50f
6:20pm 11ft 12s 8s 18 20 mph 1018.6mb 52f 51f
5:50pm 10.5ft 13s 8s 20 27 mph 1018.2mb 52f 52f
5:20pm 11ft 11s 8s 18 22 mph 1017.8mb 52f 52f
4:50pm 11ft 11s 8s 22 29 mph 1017.6mb 52f 52f
4:20pm 10.5ft 12s 8s 22 31 mph 1017.4mb 52f 52f
3:50pm 10.5ft 12s 8s 20 27 mph 1017.2mb 52f 53f
3:20pm 11ft 11s 8s 20 25 mph 1017.3mb 52f 52f
2:50pm 10ft 11s 7s 16 20 mph 1017mb 52f 52f
2:20pm 10ft 12s 7s 22 27 mph 1017mb 52f 51f
1:50pm 10.5ft 8s 7s 29 36 mph 1016.7mb 52f 52f
1:20pm 11ft 8s 8s 20 27 mph 1016.7mb 52f 53f
12:50pm 11ft 7s 7s 16 20 mph 1016.9mb 52f 52f
12:20pm 10ft 8s 7s 29 36 mph 1016.2mb 52f 52f
11:50am 10.5ft 7s 7s 29 34 mph 1016.7mb 52f 52f
11:20am 10ft 8s 7s 29 36 mph 1017.2mb 52f 53f
10:50am 10ft 12s 7s 29 36 mph 1017.5mb 52f 52f
10:20am 10ft 12s 7s 25 31 mph 1017.9mb 52f 51f
9:50am 9.5ft 12s 7s 25 31 mph 1018.2mb 52f 51f
9:20am 9ft 13s 7s 25 31 mph 1018.5mb 52f 51f
8:50am 9ft 12s 7s 20 27 mph 1019.3mb 52f 51f
8:20am 9ft 11s 7s 18 22 mph 1019.9mb 52f 51f
7:50am 9ft 13s 7s 20 25 mph 1020mb 52f 51f
7:20am 8ft 12s 7s 18 22 mph 1020.3mb 52f 51f
6:50am 8ft 11s 7s 22 27 mph 1020.4mb 52f 51f
6:20am 8.5ft 12s 8s 20 25 mph 1021.2mb 52f 51f
5:50am 8ft 11s 7s 18 22 mph 1021.3mb 52f 51f
5:20am 8ft 11s 7s 13 20 mph 1022mb 52f 51f
4:50am 9.5ft 11s 8s 20 27 mph 1021.3mb 52f 51f
4:20am 9ft 12s 8s 20 25 mph 1021.6mb 52f 51f
3:50am 9ft 12s 8s 22 27 mph 1021.9mb 52f 51f
3:20am 9ft 11s 7s 18 25 mph 1022.6mb 53f 50f
2:50am 9.5ft 11s 8s 22 27 mph 1022.9mb 53f 50f
2:20am 9ft 11s 7s 22 27 mph 1022.8mb 53f 50f
1:50am 8ft 11s 7s 18 22 mph 1023.2mb 53f 51f
1:20am 8ft 11s 7s 18 20 mph 1023.2mb 53f 50f
12:50am 7.5ft 12s 7s 18 22 mph 1023.3mb 53f 50f
12:20am 7ft 10s 7s 13 18 mph 1023.8mb 53f 50f
Thu 12/01 11:50pm 8ft 11s 7s 11 18 mph 1023.9mb 53f 50f
11:20pm 7ft 11s 7s 16 22 mph 1023.9mb 53f 50f
10:50pm 7.5ft 11s 7s 16 18 mph 1023.9mb 52f 50f
10:20pm 7ft 11s 7s 16 20 mph 1024mb 52f 50f
9:50pm 8ft 11s 7s 16 20 mph 1023.7mb 52f 49f
9:20pm 7ft 12s 8s 18 22 mph 1023.8mb 52f 48f
8:50pm 6ft 12s 7s 20 22 mph 1023.9mb 52f 48f
8:20pm 6.5ft 11s 7s 18 25 mph 1023.9mb 52f 48f
7:50pm 5.5ft 12s 7s 18 20 mph 1024.2mb 52f 48f
7:20pm 6ft 11s 8s 18 22 mph 1024.1mb 53f 49f
6:50pm 6ft 12s 8s 13 18 mph 1024.3mb 53f 49f
6:20pm 7ft 12s 8s 13 18 mph 1024.4mb 53f 49f
5:50pm 7ft 12s 8s 11 13 mph 1024.6mb 53f 49f
5:20pm 7ft 12s 8s 11 13 mph 1024.5mb 53f 49f
4:50pm 7.5ft 12s 8s 11 16 mph 1024.2mb 53f 49f
4:20pm 7ft 12s 8s 13 16 mph 1024.4mb 53f 49f
3:50pm 7.5ft 12s 8s 13 16 mph 1024mb 53f 49f
3:20pm 8.5ft 11s 8s 16 20 mph 1023.7mb 53f 48f
2:50pm 9ft 11s 8s 16 18 mph 1024mb 52f 48f
2:20pm 9.5ft 12s 8s 16 18 mph 1023.5mb 52f 48f
1:50pm 9.5ft 12s 9s 9 13 mph 1023.7mb 52f 47f
1:20pm 9ft 11s 9s 7 11 mph 1023.9mb 52f 46f
12:50pm 11ft 11s 10s 9 11 mph 1024.1mb 52f 47f
12:20pm 10ft 12s 9s 7 13 mph 1023.8mb 52f 46f
11:50am 11ft 12s 9s 9 13 mph 1023.9mb 52f 46f
11:20am 11ft 13s 10s 9 13 mph 1024mb 52f 46f
10:50am 11ft 12s 10s 9 13 mph 1024mb 52f 46f
9:50am 9.5ft 11s 9s 11 16 mph 1023.6mb 52f 45f
9:20am 11ft 12s 10s 9 11 mph 1023.6mb 52f 45f
8:50am 12ft 12s 10s 7 11 mph 1023.3mb 52f 45f
8:20am 10ft 13s 9s 7 11 mph 1023.2mb 52f 45f
7:50am 9ft 11s 9s 4 7 mph 1023.2mb 52f 45f
7:20am 8.5ft 13s 9s 7 9 mph 1023mb 52f 45f
6:50am 9.5ft 12s 9s 7 11 mph 1022.8mb 52f 46f
6:20am 10ft 13s 9s 2 7 mph 1022.8mb 52f 47f
5:50am 10ft 12s 9s  -  4 mph 1022.4mb 52f 47f
4:50am 9ft 13s 8s 4 7 mph 1022mb 52f 47f